createdAt,value
2023-02-28T00:00:44.280Z,8.93
2023-02-28T00:03:11.187Z,9.17
2023-02-28T00:05:37.981Z,8.87
2023-02-28T00:08:07.284Z,9.63
2023-02-28T00:10:34.110Z,9.40
2023-02-28T00:13:03.187Z,8.60
2023-02-28T00:15:30.086Z,9.37
2023-02-28T00:17:56.887Z,9.90
2023-02-28T00:20:27.078Z,9.40
2023-02-28T00:22:54.063Z,9.00
2023-02-28T00:25:25.427Z,9.30
2023-02-28T00:27:54.770Z,9.90
2023-02-28T00:30:24.389Z,10.50
2023-02-28T00:32:51.388Z,10.23
2023-02-28T00:35:20.694Z,10.50
2023-02-28T00:37:50.782Z,10.73
2023-02-28T00:40:17.698Z,10.27
2023-02-28T00:42:44.444Z,11.03
2023-02-28T00:45:11.385Z,10.40
2023-02-28T00:47:40.504Z,11.47
2023-02-28T00:50:08.192Z,11.27
2023-02-28T00:52:37.582Z,12.07
2023-02-28T00:55:05.000Z,11.23
2023-02-28T00:57:31.782Z,10.90
2023-02-28T00:59:58.622Z,12.83
2023-02-28T01:02:25.456Z,10.63
2023-02-28T01:04:52.881Z,10.87
2023-02-28T01:07:19.689Z,10.67
2023-02-28T01:09:51.445Z,11.63
2023-02-28T01:12:20.700Z,11.70
2023-02-28T01:14:49.736Z,11.43
2023-02-28T01:17:16.977Z,11.97
2023-02-28T01:19:43.761Z,11.80
2023-02-28T01:22:13.022Z,11.90
2023-02-28T01:24:42.074Z,11.13
2023-02-28T01:27:08.859Z,11.70
2023-02-28T01:29:35.640Z,12.63
2023-02-28T01:32:07.137Z,12.33
2023-02-28T01:34:33.954Z,11.93
2023-02-28T01:37:00.813Z,11.37
2023-02-28T01:39:27.657Z,12.93
2023-02-28T01:41:54.436Z,11.97
2023-02-28T01:45:00.265Z,12.57
2023-02-28T01:47:36.094Z,12.23
2023-02-28T01:50:05.494Z,11.60
2023-02-28T01:52:34.853Z,12.57
2023-02-28T01:55:02.544Z,11.63
2023-02-28T01:57:40.323Z,12.50
2023-02-28T02:00:14.280Z,12.33
2023-02-28T02:02:44.668Z,13.10
2023-02-28T02:05:19.128Z,13.67
2023-02-28T02:07:47.533Z,12.53
2023-02-28T02:10:21.910Z,11.90
2023-02-28T02:13:25.736Z,12.13
2023-02-28T02:16:21.718Z,12.07
2023-02-28T02:19:00.947Z,12.40
2023-02-28T02:21:49.483Z,12.63
2023-02-28T02:24:25.531Z,11.97
2023-02-28T02:27:31.288Z,11.93
2023-02-28T02:30:25.970Z,11.57
2023-02-28T02:33:18.520Z,11.97
2023-02-28T02:36:05.527Z,12.53
2023-02-28T02:38:32.367Z,11.87
2023-02-28T02:41:29.015Z,13.30
2023-02-28T02:44:18.361Z,12.80
2023-02-28T02:46:45.862Z,12.40
2023-02-28T02:49:27.294Z,12.60
2023-02-28T02:51:54.217Z,13.00
2023-02-28T02:54:29.793Z,12.80
2023-02-28T02:57:01.684Z,12.63
2023-02-28T02:59:29.302Z,11.37
2023-02-28T03:01:58.260Z,11.17
2023-02-28T03:04:25.904Z,11.53
2023-02-28T03:06:55.884Z,13.17
2023-02-28T03:09:26.483Z,12.73
2023-02-28T03:11:55.709Z,10.77
2023-02-28T03:14:58.872Z,12.07
2023-02-28T03:17:47.741Z,11.83
2023-02-28T03:20:33.329Z,11.30
2023-02-28T03:23:20.906Z,9.83
2023-02-28T03:25:59.945Z,10.53
2023-02-28T03:28:43.658Z,11.33
2023-02-28T03:31:20.804Z,10.47
2023-02-28T03:33:55.848Z,10.90
2023-02-28T03:36:30.831Z,9.50
2023-02-28T03:39:03.601Z,9.70
2023-02-28T03:41:52.448Z,9.73
2023-02-28T03:44:33.487Z,9.33
2023-02-28T03:47:05.816Z,9.43
2023-02-28T03:49:36.059Z,9.13
2023-02-28T03:52:03.822Z,8.83
2023-02-28T03:54:49.565Z,8.83
2023-02-28T03:57:29.136Z,9.50
2023-02-28T03:59:58.663Z,8.70
2023-02-28T04:02:28.475Z,7.87
2023-02-28T04:04:55.248Z,8.57
2023-02-28T04:07:24.544Z,8.27
2023-02-28T04:09:51.372Z,8.70
2023-02-28T04:12:18.187Z,8.30
2023-02-28T04:14:44.953Z,8.30
2023-02-28T04:17:11.739Z,8.57
2023-02-28T04:19:38.654Z,8.20
2023-02-28T04:22:05.468Z,7.33
2023-02-28T04:24:32.287Z,7.83
2023-02-28T04:27:01.441Z,7.80
2023-02-28T04:29:33.220Z,8.53
2023-02-28T04:32:00.523Z,8.13
2023-02-28T04:34:30.632Z,8.53
2023-02-28T04:37:16.482Z,8.70
2023-02-28T04:39:43.382Z,7.77
2023-02-28T04:42:10.548Z,8.20
2023-02-28T04:44:37.349Z,9.30
2023-02-28T04:47:04.214Z,9.00
2023-02-28T04:49:31.052Z,8.97
2023-02-28T04:51:57.825Z,9.37
2023-02-28T04:54:24.701Z,9.90
2023-02-28T04:56:53.948Z,9.87
2023-02-28T04:59:22.839Z,8.97
2023-02-28T05:01:50.329Z,8.83
2023-02-28T05:04:17.213Z,8.77
2023-02-28T05:06:48.463Z,8.80
2023-02-28T05:09:15.248Z,9.17
2023-02-28T05:11:42.250Z,9.13
2023-02-28T05:14:13.330Z,8.43
2023-02-28T05:16:42.413Z,8.30
2023-02-28T05:19:09.283Z,8.97
2023-02-28T05:21:36.890Z,8.13
2023-02-28T05:24:08.991Z,9.47
2023-02-28T05:26:42.932Z,9.33
2023-02-28T05:29:10.027Z,9.07
2023-02-28T05:31:37.282Z,9.23
2023-02-28T05:34:05.341Z,9.77
2023-02-28T05:36:34.800Z,9.50
2023-02-28T05:39:04.360Z,11.90
2023-02-28T05:41:31.527Z,9.87
2023-02-28T05:43:58.930Z,9.67
2023-02-28T05:46:25.782Z,10.00
2023-02-28T05:48:52.594Z,9.70
2023-02-28T05:51:19.429Z,9.67
2023-02-28T05:53:50.200Z,9.13
2023-02-28T05:56:19.254Z,9.13
2023-02-28T05:58:48.186Z,9.13
2023-02-28T06:01:41.987Z,9.80
2023-02-28T06:04:19.329Z,9.63
2023-02-28T06:06:54.782Z,9.70
2023-02-28T06:09:21.635Z,10.40
2023-02-28T06:11:48.480Z,10.40
2023-02-28T06:14:19.505Z,10.10
2023-02-28T06:16:48.693Z,11.00
2023-02-28T06:19:17.720Z,12.17
2023-02-28T06:21:44.552Z,10.90
2023-02-28T06:24:14.499Z,11.23
2023-02-28T06:26:43.634Z,11.73
2023-02-28T06:29:12.566Z,11.83
2023-02-28T06:31:41.826Z,11.00
2023-02-28T06:34:12.562Z,10.13
2023-02-28T06:36:45.034Z,10.13
2023-02-28T06:39:11.849Z,12.57
2023-02-28T06:41:54.066Z,9.60
2023-02-28T06:44:21.725Z,8.70
2023-02-28T06:46:49.071Z,8.60
2023-02-28T06:49:21.419Z,8.13
2023-02-28T06:51:48.260Z,8.47
2023-02-28T06:54:17.141Z,8.00
2023-02-28T06:56:43.959Z,7.63
2023-02-28T06:59:10.854Z,8.30
2023-02-28T07:01:40.090Z,8.30
2023-02-28T07:04:07.130Z,8.00
2023-02-28T07:06:34.119Z,8.10
2023-02-28T07:09:01.588Z,7.00
2023-02-28T07:11:29.129Z,7.37
2023-02-28T07:13:56.775Z,7.60
2023-02-28T07:16:23.912Z,8.03
2023-02-28T07:18:50.870Z,7.40
2023-02-28T07:21:17.689Z,7.83
2023-02-28T07:23:46.827Z,6.90
2023-02-28T07:26:18.130Z,6.90
2023-02-28T07:28:48.045Z,7.63
2023-02-28T07:31:15.403Z,7.80
2023-02-28T07:33:42.693Z,7.53
2023-02-28T07:36:16.224Z,7.67
2023-02-28T07:38:48.603Z,6.70
2023-02-28T07:41:18.705Z,6.07
2023-02-28T07:43:45.719Z,6.80
2023-02-28T07:46:16.284Z,6.90
2023-02-28T07:48:46.745Z,6.13
2023-02-28T07:51:13.520Z,5.63
2023-02-28T07:53:42.759Z,5.90
2023-02-28T07:56:14.248Z,6.87
2023-02-28T07:58:41.032Z,6.27
2023-02-28T08:01:09.033Z,5.90
2023-02-28T08:03:36.430Z,6.10
2023-02-28T08:06:08.881Z,6.53
2023-02-28T08:08:35.663Z,6.30
2023-02-28T08:11:03.150Z,6.00
2023-02-28T08:13:30.305Z,7.20
2023-02-28T08:15:57.281Z,7.07
2023-02-28T08:18:26.184Z,7.40
2023-02-28T08:20:58.545Z,7.50
2023-02-28T08:23:27.817Z,8.07
2023-02-28T08:25:56.132Z,7.37
2023-02-28T08:28:24.989Z,7.23
2023-02-28T08:30:55.431Z,7.30
2023-02-28T08:33:23.832Z,8.00
2023-02-28T08:35:54.226Z,6.83
2023-02-28T08:38:21.023Z,7.43
2023-02-28T08:40:50.035Z,7.00
2023-02-28T08:43:16.853Z,7.93
2023-02-28T08:45:45.989Z,7.77
2023-02-28T08:48:17.182Z,7.30
2023-02-28T08:50:46.565Z,6.73
2023-02-28T08:53:17.138Z,7.57
2023-02-28T08:55:46.111Z,7.53
2023-02-28T08:58:12.896Z,7.80
2023-02-28T09:00:42.213Z,7.47
2023-02-28T09:03:09.032Z,7.63
2023-02-28T09:05:38.315Z,7.73
2023-02-28T09:08:05.656Z,7.23
2023-02-28T09:10:32.396Z,7.73
2023-02-28T09:13:01.470Z,7.10
2023-02-28T09:15:28.228Z,7.53
2023-02-28T09:17:57.608Z,7.30
2023-02-28T09:20:24.542Z,6.90
2023-02-28T09:22:51.336Z,6.70
2023-02-28T09:25:20.569Z,7.17
2023-02-28T09:27:49.776Z,7.93
2023-02-28T09:30:17.274Z,7.90
2023-02-28T09:32:53.036Z,7.97
2023-02-28T09:35:26.207Z,7.33
2023-02-28T09:37:54.101Z,8.20
2023-02-28T09:40:22.297Z,8.10
2023-02-28T09:42:50.293Z,7.60
2023-02-28T09:45:40.150Z,8.17
2023-02-28T09:48:17.063Z,8.70
2023-02-28T09:50:51.814Z,8.57
2023-02-28T09:53:40.962Z,9.50
2023-02-28T09:56:27.562Z,8.20
2023-02-28T09:59:08.239Z,9.60
2023-02-28T10:01:47.172Z,8.43
2023-02-28T10:04:18.045Z,9.50
2023-02-28T10:06:50.176Z,8.90
2023-02-28T10:09:28.149Z,8.20
2023-02-28T10:11:58.431Z,8.40
2023-02-28T10:14:29.584Z,8.77
2023-02-28T10:17:11.313Z,9.13
2023-02-28T10:20:08.758Z,9.40
2023-02-28T10:22:45.591Z,9.30
2023-02-28T10:25:23.377Z,9.73
2023-02-28T10:27:51.338Z,8.90
2023-02-28T10:30:18.366Z,9.27
2023-02-28T10:32:52.018Z,9.40
2023-02-28T10:35:27.727Z,8.87
2023-02-28T10:37:56.141Z,8.90
2023-02-28T10:40:22.873Z,8.70
2023-02-28T10:43:03.942Z,9.57
2023-02-28T10:45:38.049Z,8.93
2023-02-28T10:48:35.382Z,8.70
2023-02-28T10:51:02.786Z,8.80
2023-02-28T10:53:57.668Z,9.37
2023-02-28T10:56:27.340Z,9.70
2023-02-28T10:58:55.803Z,9.20
2023-02-28T11:01:25.039Z,8.80
2023-02-28T11:03:54.493Z,10.20
2023-02-28T11:06:34.488Z,9.63
2023-02-28T11:09:07.070Z,10.00
2023-02-28T11:11:46.424Z,9.83
2023-02-28T11:14:25.977Z,9.83
2023-02-28T11:16:55.128Z,10.10
2023-02-28T11:19:27.973Z,9.17
2023-02-28T11:21:57.802Z,9.73
2023-02-28T11:24:26.131Z,10.73
2023-02-28T11:26:55.065Z,9.67
2023-02-28T11:29:28.131Z,10.30
2023-02-28T11:32:10.024Z,10.70
2023-02-28T11:34:38.521Z,11.27
2023-02-28T11:37:06.484Z,10.47
2023-02-28T11:39:33.963Z,10.53
2023-02-28T11:42:48.705Z,10.77
2023-02-28T11:45:51.434Z,10.07
2023-02-28T11:48:37.780Z,11.40
2023-02-28T11:51:13.542Z,11.53
2023-02-28T11:53:54.867Z,11.30
2023-02-28T11:56:30.663Z,11.10
2023-02-28T11:59:21.954Z,10.70
2023-02-28T12:02:22.248Z,10.57
2023-02-28T12:05:22.526Z,10.57
2023-02-28T12:08:11.206Z,10.17
2023-02-28T12:10:55.500Z,10.73
2023-02-28T12:13:29.197Z,10.07
2023-02-28T12:16:14.774Z,10.53
2023-02-28T12:19:16.814Z,10.20
2023-02-28T12:22:31.266Z,10.40
2023-02-28T12:25:25.207Z,8.73
2023-02-28T12:27:54.166Z,10.10
2023-02-28T12:30:26.646Z,9.77
2023-02-28T12:33:15.342Z,9.47
2023-02-28T12:35:50.883Z,9.60
2023-02-28T12:38:25.699Z,9.50
2023-02-28T12:41:15.671Z,9.50
2023-02-28T12:43:50.120Z,9.30
2023-02-28T12:46:25.393Z,8.73
2023-02-28T12:48:56.598Z,9.50
2023-02-28T12:51:23.618Z,9.80
2023-02-28T12:53:50.407Z,9.10
2023-02-28T12:56:33.722Z,9.97
2023-02-28T12:59:49.625Z,9.03
2023-02-28T13:02:22.419Z,9.00
2023-02-28T13:05:15.536Z,8.83
2023-02-28T13:08:23.729Z,9.33
2023-02-28T13:10:55.260Z,9.43
2023-02-28T13:13:30.688Z,9.97
2023-02-28T13:16:09.120Z,10.03
2023-02-28T13:18:55.892Z,10.27
2023-02-28T13:21:32.728Z,9.90
2023-02-28T13:24:07.201Z,10.07
2023-02-28T13:26:39.294Z,9.43
2023-02-28T13:29:12.258Z,9.93
2023-02-28T13:32:06.893Z,10.17
2023-02-28T13:34:34.659Z,9.70
2023-02-28T13:37:45.752Z,10.10
2023-02-28T13:40:12.537Z,10.20
2023-02-28T13:42:45.968Z,10.77
2023-02-28T13:45:14.046Z,10.47
2023-02-28T13:47:45.848Z,10.47
2023-02-28T13:50:25.195Z,10.20
2023-02-28T13:53:13.871Z,10.63
2023-02-28T13:55:47.106Z,10.20
2023-02-28T13:58:31.784Z,10.53
2023-02-28T14:01:22.791Z,11.43
2023-02-28T14:04:29.049Z,11.30
2023-02-28T14:06:56.127Z,11.03
2023-02-28T14:09:25.074Z,10.57
2023-02-28T14:11:52.376Z,11.00
2023-02-28T14:14:37.517Z,10.70
2023-02-28T14:17:05.200Z,11.17
2023-02-28T14:19:32.934Z,11.37
2023-02-28T14:22:20.458Z,11.33
2023-02-28T14:25:06.698Z,11.27
2023-02-28T14:27:49.256Z,11.20
2023-02-28T14:30:59.943Z,11.20
2023-02-28T14:33:44.561Z,10.30
2023-02-28T14:36:33.128Z,11.87
2023-02-28T14:39:07.065Z,10.80
2023-02-28T14:41:45.185Z,10.90
2023-02-28T14:44:21.746Z,10.23
2023-02-28T14:46:55.221Z,10.30
2023-02-28T14:49:28.914Z,10.77
2023-02-28T14:52:14.413Z,11.50
2023-02-28T14:54:45.472Z,10.17
2023-02-28T14:57:35.290Z,11.20
2023-02-28T15:00:02.353Z,10.87
2023-02-28T15:02:34.389Z,10.47
2023-02-28T15:05:11.183Z,9.73
2023-02-28T15:07:38.082Z,9.80
2023-02-28T15:10:15.363Z,10.30
2023-02-28T15:12:42.889Z,10.33
2023-02-28T15:15:28.076Z,10.13
2023-02-28T15:18:05.479Z,10.23
2023-02-28T15:20:32.466Z,8.93
2023-02-28T15:23:01.442Z,9.90
2023-02-28T15:25:28.219Z,8.97
2023-02-28T15:27:56.012Z,9.20
2023-02-28T15:30:34.559Z,9.63
2023-02-28T15:33:09.342Z,9.03
2023-02-28T15:35:36.652Z,9.70
2023-02-28T15:38:03.643Z,9.20
2023-02-28T15:40:38.135Z,9.50
2023-02-28T15:43:24.009Z,9.57
2023-02-28T15:46:00.809Z,8.57
2023-02-28T15:48:33.880Z,9.63
2023-02-28T15:51:20.790Z,9.17
2023-02-28T15:54:01.869Z,9.23
2023-02-28T15:56:29.564Z,9.57
2023-02-28T15:59:00.930Z,9.53
2023-02-28T16:01:31.417Z,9.73
2023-02-28T16:04:02.037Z,9.63
2023-02-28T16:06:47.377Z,9.20
2023-02-28T16:09:18.158Z,10.43
2023-02-28T16:11:49.714Z,10.10
2023-02-28T16:14:19.050Z,10.23
2023-02-28T16:16:50.767Z,10.97
2023-02-28T16:19:17.912Z,10.40
2023-02-28T16:21:45.058Z,11.50
2023-02-28T16:24:12.097Z,10.40
2023-02-28T16:26:42.105Z,10.77
2023-02-28T16:29:09.720Z,10.93
2023-02-28T16:31:38.007Z,10.37
2023-02-28T16:34:05.277Z,10.70
2023-02-28T16:36:32.277Z,10.80
2023-02-28T16:38:59.161Z,11.13
2023-02-28T16:41:27.052Z,10.97
2023-02-28T16:43:54.891Z,11.50
2023-02-28T16:46:21.880Z,11.93
2023-02-28T16:48:52.391Z,11.83
2023-02-28T16:51:21.562Z,11.30
2023-02-28T16:53:48.405Z,12.70
2023-02-28T16:56:25.424Z,13.07
2023-02-28T16:58:52.444Z,11.43
2023-02-28T17:01:22.988Z,12.63
2023-02-28T17:03:50.440Z,12.53
2023-02-28T17:06:37.563Z,12.60
2023-02-28T17:09:04.453Z,12.47
2023-02-28T17:11:31.583Z,13.50
2023-02-28T17:13:58.847Z,12.90
2023-02-28T17:16:35.754Z,13.83
2023-02-28T17:19:04.670Z,13.40
2023-02-28T17:21:32.199Z,13.30
2023-02-28T17:24:01.579Z,14.03
2023-02-28T17:26:29.233Z,15.20
2023-02-28T17:28:56.881Z,14.93
2023-02-28T17:31:27.602Z,15.03
2023-02-28T17:33:55.626Z,15.67
2023-02-28T17:36:29.669Z,14.50
2023-02-28T17:38:56.736Z,14.80
2023-02-28T17:41:23.542Z,15.20
2023-02-28T17:43:51.561Z,15.87
2023-02-28T17:46:22.268Z,15.63
2023-02-28T17:48:52.448Z,15.03
2023-02-28T17:51:20.957Z,16.17
2023-02-28T17:53:47.895Z,16.30
2023-02-28T17:56:22.786Z,16.47
2023-02-28T17:58:49.866Z,15.87
2023-02-28T18:01:17.907Z,17.80
2023-02-28T18:03:44.814Z,17.73
2023-02-28T18:06:28.556Z,17.00
2023-02-28T18:08:55.633Z,17.07
2023-02-28T18:11:22.939Z,18.50
2023-02-28T18:13:51.095Z,18.87
2023-02-28T18:16:18.216Z,19.63
2023-02-28T18:18:47.263Z,19.33
2023-02-28T18:21:15.196Z,18.77
2023-02-28T18:23:48.213Z,18.20
2023-02-28T18:26:16.441Z,19.17
2023-02-28T18:28:44.710Z,21.63
2023-02-28T18:31:16.271Z,20.00
2023-02-28T18:33:48.130Z,19.23
2023-02-28T18:36:14.959Z,18.50
2023-02-28T18:38:42.296Z,19.00
2023-02-28T18:41:09.105Z,19.20
2023-02-28T18:43:38.433Z,18.73
2023-02-28T18:46:12.239Z,19.00
2023-02-28T18:48:39.091Z,19.33
2023-02-28T18:51:09.733Z,19.27
2023-02-28T18:53:39.329Z,20.67
2023-02-28T18:56:06.798Z,19.37
2023-02-28T18:58:35.870Z,21.57
2023-02-28T19:01:03.473Z,24.80
2023-02-28T19:03:32.584Z,24.83
2023-02-28T19:06:01.596Z,25.73
2023-02-28T19:08:28.503Z,29.93
2023-02-28T19:10:55.424Z,30.17
2023-02-28T19:13:22.225Z,29.37
2023-02-28T19:15:56.412Z,30.13
2023-02-28T19:18:26.225Z,30.20
2023-02-28T19:20:55.452Z,29.57
2023-02-28T19:23:22.238Z,29.67
2023-02-28T19:25:49.110Z,30.30
2023-02-28T19:28:16.027Z,28.17
2023-02-28T19:30:49.879Z,28.03
2023-02-28T19:33:19.473Z,29.27
2023-02-28T19:35:46.837Z,28.00
2023-02-28T19:38:13.644Z,29.00
2023-02-28T19:40:44.174Z,30.50
2023-02-28T19:43:11.026Z,29.77
2023-02-28T19:45:40.683Z,28.60
2023-02-28T19:48:09.903Z,29.30
2023-02-28T19:50:41.420Z,30.23
2023-02-28T19:53:08.271Z,29.43
2023-02-28T19:55:37.667Z,29.33
2023-02-28T19:58:04.442Z,30.30
2023-02-28T20:00:33.775Z,28.37
2023-02-28T20:03:00.712Z,30.40
2023-02-28T20:05:27.488Z,26.27
2023-02-28T20:07:54.287Z,28.67
2023-02-28T20:10:21.111Z,27.27
2023-02-28T20:12:47.899Z,28.93
2023-02-28T20:15:16.964Z,28.07
2023-02-28T20:17:46.754Z,27.33
2023-02-28T20:20:13.662Z,27.20
2023-02-28T20:22:40.446Z,30.00
2023-02-28T20:25:08.205Z,28.03
2023-02-28T20:27:35.278Z,28.97
2023-02-28T20:30:07.255Z,27.60
2023-02-28T20:32:39.701Z,29.80
2023-02-28T20:35:08.703Z,28.23
2023-02-28T20:37:37.710Z,28.03
2023-02-28T20:40:08.180Z,28.13
2023-02-28T20:42:35.001Z,27.73
2023-02-28T20:45:04.525Z,31.33
2023-02-28T20:47:31.349Z,32.50
2023-02-28T20:49:58.201Z,33.73
2023-02-28T20:52:25.150Z,34.40
2023-02-28T20:54:51.973Z,35.60
2023-02-28T20:57:21.117Z,34.23
2023-02-28T20:59:50.316Z,34.07
2023-02-28T21:02:17.328Z,34.47
2023-02-28T21:04:46.332Z,35.57
2023-02-28T21:07:13.130Z,35.40
2023-02-28T21:09:40.001Z,35.93
2023-02-28T21:12:06.932Z,35.60
2023-02-28T21:14:33.745Z,35.20
2023-02-28T21:17:00.639Z,34.73
2023-02-28T21:19:27.456Z,34.03
2023-02-28T21:21:56.824Z,35.20
2023-02-28T21:24:25.859Z,34.30
2023-02-28T21:26:53.996Z,34.33
2023-02-28T21:29:20.852Z,36.60
2023-02-28T21:31:50.298Z,36.03
2023-02-28T21:34:19.501Z,36.97
2023-02-28T21:36:47.409Z,41.87
2023-02-28T21:39:14.456Z,41.53
2023-02-28T21:41:42.144Z,40.33
2023-02-28T21:44:09.980Z,42.10
2023-02-28T21:46:38.986Z,44.13
2023-02-28T21:49:05.858Z,47.70
2023-02-28T21:51:32.608Z,47.43
2023-02-28T21:54:00.071Z,49.73
2023-02-28T21:56:31.921Z,53.10
2023-02-28T21:59:02.242Z,54.07
2023-02-28T22:01:31.130Z,52.33
2023-02-28T22:04:00.372Z,53.47
2023-02-28T22:06:29.052Z,53.43
2023-02-28T22:08:57.212Z,51.23
2023-02-28T22:11:25.126Z,52.03
2023-02-28T22:14:00.204Z,50.20
2023-02-28T22:16:31.194Z,48.57
2023-02-28T22:19:00.225Z,48.33
2023-02-28T22:21:27.143Z,46.33
2023-02-28T22:23:53.990Z,44.93
2023-02-28T22:26:21.633Z,45.40
2023-02-28T22:28:51.004Z,44.13
2023-02-28T22:31:22.695Z,43.67
2023-02-28T22:33:49.855Z,43.40
2023-02-28T22:36:17.578Z,42.77
2023-02-28T22:38:44.678Z,41.67
2023-02-28T22:41:12.035Z,40.33
2023-02-28T22:43:44.525Z,42.10
2023-02-28T22:46:12.622Z,42.70
2023-02-28T22:48:39.620Z,40.23
2023-02-28T22:51:07.600Z,40.07
2023-02-28T22:53:35.264Z,40.37
2023-02-28T22:56:05.599Z,42.07
2023-02-28T22:58:37.543Z,42.90
2023-02-28T23:01:11.820Z,42.83
2023-02-28T23:03:38.814Z,43.40
2023-02-28T23:06:17.887Z,47.80
2023-02-28T23:08:44.890Z,46.57
2023-02-28T23:11:16.428Z,50.07
2023-02-28T23:13:46.613Z,51.17
2023-02-28T23:16:13.389Z,48.90
2023-02-28T23:18:40.587Z,52.37
2023-02-28T23:21:09.846Z,49.97
2023-02-28T23:23:36.739Z,49.83
2023-02-28T23:26:07.996Z,49.93
2023-02-28T23:28:36.945Z,50.80
2023-02-28T23:31:06.749Z,50.50
2023-02-28T23:33:35.716Z,50.53
2023-02-28T23:36:15.277Z,49.87
2023-02-28T23:38:46.538Z,49.23
2023-02-28T23:41:16.004Z,49.17
2023-02-28T23:43:42.830Z,51.83
2023-02-28T23:46:10.140Z,49.03
2023-02-28T23:48:39.699Z,50.23
2023-02-28T23:51:12.450Z,50.43
2023-02-28T23:53:40.809Z,48.80
2023-02-28T23:56:08.168Z,50.50
2023-02-28T23:58:35.085Z,48.53
